NJE077 EGPL-EGAA
Flight info
| Callsign | NJE077 |
|---|---|
| Flight time | 0h 39m |
| Altitude | 29000 |
| Route | TIR DCT ISY DCT MAC DCT BELZU |
| Aircraft | B737/M-SDE2E3FGHIRWXY/LB1 |
Departure
| Time | 2026-04-26 16:24 |
|---|---|
| Airport | Benbecula Airport (EGPL) |
Arrival
| Time | 2026-04-26 17:03 |
|---|---|
| Airport | Belfast International Airport (EGAA) |
| Time | Latitude | Longitude | Altitude | Speed | Heading |
|---|---|---|---|---|---|
| 2026-04-26 16:02 | 57.47520 | -7.37180 | 29 ft | 0 kts | 18° |
| 2026-04-26 16:17 | 57.47529 | -7.37185 | 28 ft | 2 kts | 331° |
| 2026-04-26 16:17 | 57.47529 | -7.37214 | 27 ft | 2 kts | 253° |
| 2026-04-26 16:17 | 57.47523 | -7.37247 | 27 ft | 3 kts | 252° |
| 2026-04-26 16:18 | 57.47517 | -7.37286 | 27 ft | 3 kts | 252° |
| 2026-04-26 16:18 | 57.47538 | -7.37377 | 29 ft | 6 kts | 322° |
| 2026-04-26 16:19 | 57.47616 | -7.37480 | 25 ft | 7 kts | 325° |
| 2026-04-26 16:19 | 57.47660 | -7.37485 | 25 ft | 7 kts | 37° |
| 2026-04-26 16:19 | 57.47751 | -7.37247 | 28 ft | 18 kts | 56° |
| 2026-04-26 16:20 | 57.47833 | -7.37024 | 24 ft | 22 kts | 55° |
| 2026-04-26 16:20 | 57.48005 | -7.36562 | 26 ft | 21 kts | 55° |
| 2026-04-26 16:20 | 57.48088 | -7.36340 | 28 ft | 20 kts | 55° |
| 2026-04-26 16:21 | 57.48169 | -7.36127 | 26 ft | 20 kts | 55° |
| 2026-04-26 16:21 | 57.48247 | -7.35920 | 23 ft | 19 kts | 55° |
| 2026-04-26 16:21 | 57.48327 | -7.35726 | 25 ft | 19 kts | 52° |
| 2026-04-26 16:21 | 57.48401 | -7.35534 | 29 ft | 18 kts | 55° |
| 2026-04-26 16:22 | 57.48470 | -7.35345 | 25 ft | 17 kts | 56° |
| 2026-04-26 16:22 | 57.48538 | -7.35165 | 24 ft | 15 kts | 53° |
| 2026-04-26 16:22 | 57.48570 | -7.35084 | 24 ft | 5 kts | 54° |
| 2026-04-26 16:22 | 57.48556 | -7.35061 | 24 ft | 4 kts | 206° |
| 2026-04-26 16:23 | 57.48543 | -7.35105 | 26 ft | 4 kts | 236° |
| 2026-04-26 16:23 | 57.48540 | -7.35114 | 25 ft | 0 kts | 235° |
| 2026-04-26 16:23 | 57.48470 | -7.35302 | 26 ft | 56 kts | 236° |
| 2026-04-26 16:23 | 57.48084 | -7.36358 | 35 ft | 136 kts | 236° |
| 2026-04-26 16:24 | 57.47523 | -7.37965 | 745 ft | 148 kts | 236° |
| 2026-04-26 16:24 | 57.46985 | -7.39502 | 1965 ft | 142 kts | 237° |
| 2026-04-26 16:24 | 57.46374 | -7.41173 | 2629 ft | 175 kts | 236° |
| 2026-04-26 16:24 | 57.45573 | -7.43208 | 3011 ft | 216 kts | 226° |
| 2026-04-26 16:25 | 57.44125 | -7.44464 | 3614 ft | 248 kts | 185° |
| 2026-04-26 16:25 | 57.42411 | -7.43806 | 4836 ft | 257 kts | 163° |
| 2026-04-26 16:25 | 57.40703 | -7.42601 | 5965 ft | 266 kts | 162° |
| 2026-04-26 16:25 | 57.38968 | -7.41343 | 7138 ft | 270 kts | 162° |
| 2026-04-26 16:26 | 57.37200 | -7.40097 | 8282 ft | 274 kts | 163° |
| 2026-04-26 16:26 | 57.36010 | -7.39283 | 9031 ft | 277 kts | 163° |
| 2026-04-26 16:26 | 57.33560 | -7.37662 | 10493 ft | 283 kts | 164° |
| 2026-04-26 16:26 | 57.31627 | -7.36425 | 11046 ft | 308 kts | 165° |
| 2026-04-26 16:27 | 57.29526 | -7.35113 | 11383 ft | 335 kts | 165° |
| 2026-04-26 16:27 | 57.27251 | -7.33706 | 12240 ft | 344 kts | 165° |
| 2026-04-26 16:27 | 57.24994 | -7.32317 | 13277 ft | 348 kts | 166° |
| 2026-04-26 16:27 | 57.22678 | -7.30902 | 14303 ft | 353 kts | 166° |
| 2026-04-26 16:28 | 57.20324 | -7.29474 | 15251 ft | 359 kts | 166° |
| 2026-04-26 16:28 | 57.17934 | -7.28030 | 16229 ft | 364 kts | 166° |
| 2026-04-26 16:28 | 57.15506 | -7.26568 | 17174 ft | 370 kts | 167° |
| 2026-04-26 16:28 | 57.13035 | -7.25086 | 18084 ft | 377 kts | 167° |
| 2026-04-26 16:29 | 57.10516 | -7.23579 | 18971 ft | 383 kts | 167° |
| 2026-04-26 16:29 | 57.07971 | -7.22057 | 19858 ft | 386 kts | 168° |
| 2026-04-26 16:29 | 57.05402 | -7.20521 | 20783 ft | 389 kts | 168° |
| 2026-04-26 16:29 | 57.02819 | -7.18980 | 21655 ft | 393 kts | 169° |
| 2026-04-26 16:30 | 57.00201 | -7.17421 | 22493 ft | 397 kts | 169° |
| 2026-04-26 16:30 | 56.97554 | -7.15849 | 23325 ft | 401 kts | 169° |
| 2026-04-26 16:30 | 56.94880 | -7.14262 | 24086 ft | 406 kts | 170° |
| 2026-04-26 16:30 | 56.92182 | -7.12664 | 24763 ft | 409 kts | 169° |
| 2026-04-26 16:31 | 56.89466 | -7.11055 | 25398 ft | 413 kts | 169° |
| 2026-04-26 16:31 | 56.86712 | -7.09429 | 25979 ft | 418 kts | 169° |
| 2026-04-26 16:31 | 56.83929 | -7.07787 | 26623 ft | 421 kts | 169° |
| 2026-04-26 16:31 | 56.81164 | -7.06156 | 27287 ft | 424 kts | 169° |
| 2026-04-26 16:32 | 56.78349 | -7.04498 | 27927 ft | 426 kts | 169° |
| 2026-04-26 16:32 | 56.76440 | -7.03376 | 28335 ft | 428 kts | 169° |
| 2026-04-26 16:32 | 56.72671 | -7.01163 | 29171 ft | 431 kts | 169° |
| 2026-04-26 16:32 | 56.69809 | -6.99487 | 29222 ft | 433 kts | 169° |
| 2026-04-26 16:33 | 56.64136 | -6.96164 | 29209 ft | 426 kts | 168° |
| 2026-04-26 16:33 | 56.58449 | -6.92859 | 29257 ft | 432 kts | 168° |
| 2026-04-26 16:34 | 56.52688 | -6.89515 | 29262 ft | 435 kts | 168° |
| 2026-04-26 16:34 | 56.47024 | -6.85957 | 29262 ft | 431 kts | 164° |
| 2026-04-26 16:35 | 56.41490 | -6.81585 | 29269 ft | 436 kts | 162° |
| 2026-04-26 16:35 | 56.35954 | -6.77105 | 29256 ft | 436 kts | 162° |
| 2026-04-26 16:36 | 56.30400 | -6.72693 | 29262 ft | 436 kts | 162° |
| 2026-04-26 16:36 | 56.24839 | -6.68339 | 29264 ft | 436 kts | 162° |
| 2026-04-26 16:37 | 56.19285 | -6.64017 | 29266 ft | 435 kts | 162° |
| 2026-04-26 16:37 | 56.14665 | -6.60432 | 29266 ft | 435 kts | 162° |
| 2026-04-26 16:38 | 56.08170 | -6.55407 | 29266 ft | 434 kts | 162° |
| 2026-04-26 16:38 | 56.02617 | -6.51124 | 29268 ft | 435 kts | 162° |
| 2026-04-26 16:39 | 55.97089 | -6.46874 | 29269 ft | 436 kts | 162° |
| 2026-04-26 16:39 | 55.91513 | -6.42599 | 29263 ft | 436 kts | 162° |
| 2026-04-26 16:40 | 55.85938 | -6.38339 | 29267 ft | 436 kts | 162° |
| 2026-04-26 16:40 | 55.80365 | -6.34092 | 29261 ft | 436 kts | 162° |
| 2026-04-26 16:41 | 55.74794 | -6.29860 | 29263 ft | 435 kts | 162° |
| 2026-04-26 16:41 | 55.69365 | -6.25018 | 29261 ft | 444 kts | 149° |
| 2026-04-26 16:42 | 55.64920 | -6.17288 | 29271 ft | 455 kts | 131° |
| 2026-04-26 16:42 | 55.61190 | -6.08209 | 29258 ft | 455 kts | 130° |
| 2026-04-26 16:43 | 55.57499 | -5.99230 | 29259 ft | 454 kts | 131° |
| 2026-04-26 16:43 | 55.53735 | -5.90282 | 29263 ft | 453 kts | 131° |
| 2026-04-26 16:44 | 55.49944 | -5.81342 | 28336 ft | 459 kts | 131° |
| 2026-04-26 16:44 | 55.48039 | -5.76864 | 27657 ft | 452 kts | 132° |
| 2026-04-26 16:44 | 55.45859 | -5.73018 | 26938 ft | 435 kts | 150° |
| 2026-04-26 16:45 | 55.43215 | -5.70683 | 26289 ft | 418 kts | 167° |
| 2026-04-26 16:45 | 55.40411 | -5.69714 | 25460 ft | 408 kts | 181° |
| 2026-04-26 16:45 | 55.37585 | -5.69844 | 24502 ft | 405 kts | 192° |
| 2026-04-26 16:45 | 55.34890 | -5.71109 | 23705 ft | 398 kts | 205° |
| 2026-04-26 16:46 | 55.32344 | -5.72961 | 22867 ft | 394 kts | 207° |
| 2026-04-26 16:46 | 55.29854 | -5.74907 | 22143 ft | 389 kts | 207° |
| 2026-04-26 16:46 | 55.27434 | -5.76827 | 21449 ft | 384 kts | 207° |
| 2026-04-26 16:46 | 55.24978 | -5.78765 | 20754 ft | 380 kts | 207° |
| 2026-04-26 16:47 | 55.22579 | -5.80636 | 20073 ft | 376 kts | 207° |
| 2026-04-26 16:47 | 55.20196 | -5.82474 | 19386 ft | 372 kts | 207° |
| 2026-04-26 16:47 | 55.17833 | -5.84283 | 18740 ft | 369 kts | 207° |
| 2026-04-26 16:47 | 55.15489 | -5.86068 | 18006 ft | 366 kts | 207° |
| 2026-04-26 16:48 | 55.13155 | -5.87838 | 17285 ft | 363 kts | 207° |
| 2026-04-26 16:48 | 55.10882 | -5.89559 | 16617 ft | 359 kts | 206° |
| 2026-04-26 16:48 | 55.08601 | -5.91282 | 15956 ft | 355 kts | 206° |
| 2026-04-26 16:48 | 55.06343 | -5.92986 | 15312 ft | 352 kts | 206° |
| 2026-04-26 16:49 | 55.04105 | -5.94672 | 14662 ft | 349 kts | 206° |
| 2026-04-26 16:49 | 55.01885 | -5.96343 | 14029 ft | 346 kts | 206° |
| 2026-04-26 16:49 | 54.99680 | -5.98001 | 13303 ft | 344 kts | 206° |
| 2026-04-26 16:49 | 54.97486 | -5.99649 | 12623 ft | 341 kts | 206° |
| 2026-04-26 16:50 | 54.95316 | -6.01276 | 11970 ft | 338 kts | 205° |
| 2026-04-26 16:50 | 54.93170 | -6.02884 | 11319 ft | 335 kts | 205° |
| 2026-04-26 16:50 | 54.91034 | -6.04482 | 10670 ft | 333 kts | 205° |
| 2026-04-26 16:50 | 54.89641 | -6.05522 | 10528 ft | 323 kts | 205° |
| 2026-04-26 16:51 | 54.87627 | -6.07023 | 10340 ft | 308 kts | 205° |
| 2026-04-26 16:51 | 54.85707 | -6.08453 | 10207 ft | 293 kts | 205° |
| 2026-04-26 16:51 | 54.83874 | -6.09819 | 10057 ft | 280 kts | 205° |
| 2026-04-26 16:51 | 54.82118 | -6.11125 | 9790 ft | 272 kts | 205° |
| 2026-04-26 16:52 | 54.80390 | -6.12413 | 9430 ft | 268 kts | 205° |
| 2026-04-26 16:52 | 54.79258 | -6.13256 | 9181 ft | 267 kts | 205° |
| 2026-04-26 16:52 | 54.76982 | -6.14949 | 8660 ft | 265 kts | 205° |
| 2026-04-26 16:52 | 54.75295 | -6.16202 | 8286 ft | 263 kts | 205° |
| 2026-04-26 16:53 | 54.73621 | -6.17444 | 7904 ft | 261 kts | 205° |
| 2026-04-26 16:53 | 54.71957 | -6.18678 | 7546 ft | 259 kts | 205° |
| 2026-04-26 16:53 | 54.70312 | -6.19897 | 7346 ft | 252 kts | 205° |
| 2026-04-26 16:53 | 54.68734 | -6.21064 | 7205 ft | 243 kts | 205° |
| 2026-04-26 16:54 | 54.67212 | -6.22184 | 7094 ft | 233 kts | 205° |
| 2026-04-26 16:54 | 54.65738 | -6.23234 | 6890 ft | 229 kts | 199° |
| 2026-04-26 16:54 | 54.64151 | -6.23497 | 6642 ft | 230 kts | 182° |
| 2026-04-26 16:54 | 54.62556 | -6.23446 | 6357 ft | 228 kts | 181° |
| 2026-04-26 16:55 | 54.60970 | -6.23400 | 6083 ft | 227 kts | 181° |
| 2026-04-26 16:55 | 54.59413 | -6.23364 | 5820 ft | 226 kts | 182° |
| 2026-04-26 16:55 | 54.57858 | -6.23335 | 5562 ft | 220 kts | 182° |
| 2026-04-26 16:55 | 54.56350 | -6.23311 | 5300 ft | 212 kts | 182° |
| 2026-04-26 16:56 | 54.53497 | -6.23279 | 4778 ft | 199 kts | 182° |
| 2026-04-26 16:56 | 54.52138 | -6.23267 | 4544 ft | 192 kts | 182° |
| 2026-04-26 16:56 | 54.50849 | -6.23255 | 4438 ft | 178 kts | 182° |
| 2026-04-26 16:57 | 54.49620 | -6.23244 | 4389 ft | 175 kts | 182° |
| 2026-04-26 16:57 | 54.48420 | -6.22885 | 4306 ft | 178 kts | 158° |
| 2026-04-26 16:57 | 54.46828 | -6.19616 | 3938 ft | 186 kts | 100° |
| 2026-04-26 16:58 | 54.46907 | -6.17445 | 3743 ft | 182 kts | 69° |
| 2026-04-26 16:58 | 54.47289 | -6.16190 | 3590 ft | 178 kts | 50° |
| 2026-04-26 16:58 | 54.49762 | -6.14803 | 3254 ft | 169 kts | 348° |
| 2026-04-26 16:59 | 54.50923 | -6.15162 | 3015 ft | 168 kts | 348° |
| 2026-04-26 16:59 | 54.52993 | -6.16084 | 2600 ft | 139 kts | 341° |
| 2026-04-26 17:00 | 54.54708 | -6.16985 | 2262 ft | 126 kts | 341° |
| 2026-04-26 17:00 | 54.56397 | -6.17892 | 1868 ft | 125 kts | 341° |
| 2026-04-26 17:00 | 54.57237 | -6.18365 | 1722 ft | 129 kts | 342° |
| 2026-04-26 17:01 | 54.58111 | -6.18758 | 1607 ft | 130 kts | 345° |
| 2026-04-26 17:01 | 54.58972 | -6.19198 | 1444 ft | 127 kts | 342° |
| 2026-04-26 17:01 | 54.59809 | -6.19647 | 1276 ft | 124 kts | 343° |
| 2026-04-26 17:01 | 54.60642 | -6.20029 | 1109 ft | 124 kts | 345° |
| 2026-04-26 17:02 | 54.61474 | -6.20467 | 898 ft | 126 kts | 344° |
| 2026-04-26 17:02 | 54.62306 | -6.20922 | 739 ft | 124 kts | 344° |
| 2026-04-26 17:02 | 54.63124 | -6.21373 | 554 ft | 123 kts | 345° |
| 2026-04-26 17:02 | 54.63933 | -6.21827 | 384 ft | 123 kts | 346° |
| 2026-04-26 17:03 | 54.64738 | -6.22276 | 273 ft | 114 kts | 345° |
| 2026-04-26 17:03 | 54.65339 | -6.22608 | 271 ft | 61 kts | 342° |
| 2026-04-26 17:03 | 54.65611 | -6.22762 | 271 ft | 22 kts | 341° |
| 2026-04-26 17:03 | 54.65695 | -6.22803 | 271 ft | 9 kts | 0° |
| 2026-04-26 17:04 | 54.65740 | -6.22737 | 271 ft | 9 kts | 75° |
| 2026-04-26 17:04 | 54.65744 | -6.22632 | 271 ft | 9 kts | 87° |
| 2026-04-26 17:04 | 54.65748 | -6.22530 | 271 ft | 8 kts | 82° |
| 2026-04-26 17:04 | 54.65756 | -6.22431 | 271 ft | 8 kts | 82° |
| 2026-04-26 17:05 | 54.65764 | -6.22335 | 271 ft | 8 kts | 82° |
| 2026-04-26 17:05 | 54.65772 | -6.22242 | 271 ft | 8 kts | 82° |
| 2026-04-26 17:05 | 54.65781 | -6.22153 | 275 ft | 7 kts | 75° |
| 2026-04-26 17:05 | 54.65800 | -6.22071 | 273 ft | 7 kts | 65° |
| 2026-04-26 17:06 | 54.65830 | -6.22007 | 271 ft | 7 kts | 21° |
| 2026-04-26 17:06 | 54.65876 | -6.22026 | 274 ft | 7 kts | 334° |
| 2026-04-26 17:06 | 54.65919 | -6.22020 | 273 ft | 7 kts | 42° |
| 2026-04-26 17:06 | 54.65942 | -6.21952 | 274 ft | 5 kts | 65° |
| 2026-04-26 17:07 | 54.65949 | -6.21926 | 271 ft | 1 kts | 65° |
| 2026-04-26 17:07 | 54.65951 | -6.21919 | 271 ft | 0 kts | 65° |